createdAt,value
2022-08-26T00:15:48.844Z,20.64
2022-08-26T00:35:23.017Z,20.21
2022-08-26T00:56:05.732Z,19.95
2022-08-26T01:14:51.554Z,19.64
2022-08-26T01:34:23.377Z,19.4
2022-08-26T01:55:57.342Z,19.24
2022-08-26T02:15:52.917Z,19.1
2022-08-26T02:34:48.295Z,18.94
2022-08-26T02:55:03.647Z,18.75
2022-08-26T03:15:51.643Z,18.66
2022-08-26T03:34:58.472Z,18.57
2022-08-26T03:56:20.302Z,18.53
2022-08-26T04:15:14.348Z,18.29
2022-08-26T04:35:53.816Z,18.24
2022-08-26T04:56:16.407Z,18.15
2022-08-26T05:15:21.265Z,18.32
2022-08-26T05:35:48.270Z,18.48
2022-08-26T05:55:56.347Z,18.93
2022-08-26T06:16:19.941Z,19.58
2022-08-26T06:36:16.175Z,20.25
2022-08-26T06:55:33.927Z,20.58
2022-08-26T07:16:08.419Z,21.54
2022-08-26T07:35:26.226Z,23
2022-08-26T07:56:15.325Z,23.72
2022-08-26T08:16:42.447Z,24.41
2022-08-26T08:36:00.619Z,25.15
2022-08-26T08:55:14.781Z,25.71
2022-08-26T09:15:54.994Z,26.31
2022-08-26T09:35:45.003Z,26.9
2022-08-26T09:56:43.533Z,27.55
2022-08-26T10:15:13.330Z,28.55
2022-08-26T10:35:52.155Z,28.9
2022-08-26T10:55:13.636Z,30.94
2022-08-26T11:15:54.957Z,30.85
2022-08-26T11:36:07.413Z,29.52
2022-08-26T11:56:00.474Z,28.42
2022-08-26T12:14:35.465Z,27.94
2022-08-26T12:35:25.672Z,27.06
2022-08-26T12:54:43.644Z,26.97
2022-08-26T13:14:52.483Z,26.99
2022-08-26T13:36:07.017Z,27.5
2022-08-26T13:55:23.599Z,28.11
2022-08-26T14:15:40.571Z,28.04
2022-08-26T14:34:38.873Z,27.93
2022-08-26T14:54:47.748Z,28.19
2022-08-26T15:14:33.248Z,28.01
2022-08-26T15:36:16.616Z,26.46
2022-08-26T16:15:32.875Z,23.76
2022-08-26T16:36:17.305Z,22.76
2022-08-26T16:56:33.861Z,21.65
2022-08-26T17:15:39.797Z,20.55
2022-08-26T17:35:44.447Z,20.02
2022-08-26T17:56:14.406Z,18.81
2022-08-26T18:14:54.710Z,18.68
2022-08-26T18:36:04.603Z,18.34
2022-08-26T18:54:34.488Z,18.41
2022-08-26T19:15:06.835Z,18.33
2022-08-26T19:35:44.465Z,18.49
2022-08-26T19:55:22.736Z,18.56
2022-08-26T20:16:22.581Z,18.34
2022-08-26T20:36:07.275Z,18.35
2022-08-26T20:54:45.570Z,18.48
2022-08-26T21:15:04.542Z,18.35
2022-08-26T21:35:31.119Z,18.38
2022-08-26T21:55:18.623Z,18.34
2022-08-26T22:15:20.329Z,18.36
2022-08-26T22:35:16.691Z,18.31
2022-08-26T22:54:47.142Z,18.33
2022-08-26T23:15:25.891Z,18.22
2022-08-26T23:34:18.022Z,18.27
2022-08-26T23:54:27.605Z,18.17
